Cape Town International Airport

FACT · Western Cape, South Africa

METAR history FACT · Cape Town International Airport

Below you see METARs of the last few days. Select a year to browse through older METARs, from the year 2007 onwards.

April 20, 2024

Time Code Weather Temp. Visibility Ceiling Wind METAR/SPECI
08:16
L
13 °C 800 m 300 ft 310° 310° 7 kt METAR FACT 200616Z 31007KT 0800 R01/0800 FG OVC003 13/13 Q1015
08:13
L
13 °C 800 m 300 ft 320° 320° 7 kt METAR FACT 200613Z 32007KT 0800 R01/0650 FG OVC003 13/13 Q1015
08:07
L
13 °C 800 m 300 ft 320° 320° 7 kt METAR FACT 200607Z 32007KT 0800 R01/0800 FG OVC003 13/13 Q1015
08:01
L
13 °C 800 m 300 ft 310° 310° 5 kt METAR FACT 200601Z 31005KT 260V350 0800 FG OVC003 13/13 Q1015 TEMPO BKN001
08:00
L
13 °C 800 m 300 ft 310° 310° 5 kt METAR FACT 200600Z 31005KT 260V350 0800 FG OVC003 13/13 Q1015 TEMPO BKN001
07:50
L
13 °C 1.5 km 300 ft 290° 290° 6 kt METAR FACT 200550Z 29006KT 1500 R01/P1500 BR OVC003 13/13 Q1015
07:44
L
13 °C 1.5 km 300 ft 290° 290° 6 kt METAR FACT 200544Z 29006KT 1500 BR OVC003 13/13 Q1015 TEMPO 0800 FG BKN001
07:36
L
14 °C 4 km 300 ft 300° 300° 5 kt METAR FACT 200536Z 30005KT 4000 BR OVC003 14/13 Q1015
07:33
L
14 °C 4 km 300 ft 310° 310° 5 kt METAR FACT 200533Z 31005KT 290V020 4000 BR OVC003 14/13 Q1015
07:00
L
14 °C 4 km 300 ft 360° 360° 4 kt METAR FACT 200500Z 36004KT 340V040 4000 BR OVC003 14/13 Q1015 TEMPO 2000
06:58
L
14 °C 4 km 300 ft 360° 360° 4 kt METAR FACT 200458Z 36004KT 340V040 4000 BR OVC003 14/13 Q1015 TEMPO 2000
06:57
L
15 °C 4 km 300 ft 360° 360° 4 kt METAR FACT 200457Z 36004KT 340V040 4000 BR OVC003 15/14 Q1015 TEMPO 2000
06:47
L
14 °C 2 km 300 ft Var Var 3 kt METAR FACT 200447Z VRB03KT 2000 BR OVC003 14/14 Q1014
06:38
L
14 °C 2 km 300 ft 340° 340° 3 kt METAR FACT 200438Z 34003KT 2000 BR OVC003 14/14 Q1014
06:22
L
14 °C 2 km 300 ft 350° 350° 4 kt METAR FACT 200422Z 35004KT 310V040 2000 R01/P1500 BR OVC003 14/14 Q1014
06:16
L
14 °C 2 km 300 ft Var Var 3 kt METAR FACT 200416Z VRB03KT 2000 BR OVC003 14/14 Q1014
06:13
L
14 °C 2 km 300 ft Var Var 3 kt METAR FACT 200413Z VRB03KT 2000 BR OVC003 14/14 Q1014
06:03
L
14 °C 2 km 300 ft 310° 310° 3 kt METAR FACT 200403Z 31003KT 2000 BR OVC003 14/13 Q1014
06:00
L
14 °C 2 km 300 ft Var Var 3 kt METAR FACT 200400Z VRB03KT 2000 BR OVC003 14/14 Q1015 TEMPO 0100 FG OVC001
05:49
L
14 °C 2 km 300 ft Var Var 3 kt METAR FACT 200349Z VRB03KT 2000 BR OVC003 14/14 Q1014
05:43
L
14 °C 2 km 300 ft 320° 320° 3 kt METAR FACT 200343Z 32003KT 2000 R01/P1500 BR OVC003 14/13 Q1014
05:31
L
14 °C 2 km 300 ft Var Var 3 kt METAR FACT 200331Z VRB03KT 2000 BR OVC003 14/13 Q1015
05:15
L
14 °C 2 km 300 ft 320° 320° 4 kt METAR FACT 200315Z 32004KT 2000 BR OVC003 14/13 Q1015
05:12
L
14 °C 2 km 300 ft 330° 330° 4 kt METAR FACT 200312Z 33004KT 300V020 2000 BR OVC003 14/14 Q1015
05:06
L
14 °C 2 km 300 ft Var Var 3 kt METAR FACT 200306Z VRB03KT 2000 BR OVC003 14/14 Q1015
05:00
L
14 °C 2 km 300 ft Var Var 1 kt METAR FACT 200300Z VRB01KT 2000 BR OVC003 14/14 Q1015 TEMPO 0100 FG OVC001
04:43
L
14 °C 500 m 200 ft Var Var 1 kt METAR FACT 200243Z VRB01KT 0500 R19/P1500 FG OVC002 14/14 Q1015
04:33
L
14 °C 500 m 200 ft Var Var 1 kt METAR FACT 200233Z VRB01KT 0500 R19/P1500 FG OVC002 14/14 Q1015
04:23
L
14 °C 500 m 200 ft Var Var 3 kt METAR FACT 200223Z VRB03KT 0500 FG OVC002 14/14 Q1015 NOSIG
04:06
L
14 °C 200 m 100 ft Var Var 2 kt METAR FACT 200206Z VRB02KT 0200 R19/P1500 FG OVC001 14/14 Q1015
04:00
L
14 °C 200 m 100 ft Var Var 1 kt METAR FACT 200200Z VRB01KT 0200 FG OVC001 14/14 Q1015 NOSIG
03:20
L
14 °C 200 m 100 ft Var Var 2 kt METAR FACT 200120Z VRB02KT 0200 R19/1400 FG OVC001 14/14 Q1015
03:10
L
14 °C 200 m 100 ft Var Var 1 kt METAR FACT 200110Z VRB01KT 0200 R19/P1500 FG OVC001 14/14 Q1015
03:00
L
14 °C 200 m 100 ft Var Var 2 kt METAR FACT 200100Z VRB02KT 0200 FG OVC001 14/14 Q1015 NOSIG
02:21
L
14 °C 100 m 100 ft 170° 170° 4 kt METAR FACT 200021Z 17004KT 140V200 0100 R19/1000 FG OVC001 14/14 Q1016
02:11
L
14 °C 100 m 100 ft 180° 180° 4 kt METAR FACT 200011Z 18004KT 0100 R19/0900 FG OVC001 14/14 Q1016
02:00
L
14 °C 100 m 100 ft 180° 180° 5 kt METAR FACT 200000Z 18005KT 150V210 0100 R19/0900 FG OVC001 14/14 Q1016 NOSIG
01:21
L
14 °C 100 m 100 ft 200° 200° 6 kt METAR FACT 192321Z 20006KT 0100 R19/P1500 FG OVC001 14/14 Q1016
01:14
L
14 °C 100 m 100 ft 190° 190° 6 kt METAR FACT 192314Z 19006KT 0100 R19/P1500 FG OVC001 14/14 Q1015
01:11
L
14 °C 100 m 100 ft 190° 190° 6 kt METAR FACT 192311Z 19006KT 0100 R19/P1500 FG OVC001 14/14 Q1015
01:04
L
14 °C 100 m 100 ft 180° 180° 6 kt METAR FACT 192304Z 18006KT 0100 R19/0700 FG OVC001 14/14 Q1015
01:00
L
14 °C 100 m 100 ft 180° 180° 6 kt METAR FACT 192300Z 18006KT 0100 R19/0700 FG OVC001 14/14 Q1015 NOSIG
00:55
L
14 °C 100 m 100 ft 180° 180° 6 kt METAR FACT 192255Z 18006KT 0100 R19/0700 FG OVC001 14/14 Q1015 NOSIG
00:20
L
14 °C 100 m 100 ft 180° 180° 7 kt METAR FACT 192220Z 18007KT 0100 R19/1100 FG OVC001 14/14 Q1016
00:17
L
14 °C 100 m 100 ft 180° 180° 7 kt METAR FACT 192217Z 18007KT 0100 R19/1200 FG OVC001 14/14 Q1016
00:14
L
14 °C 100 m 100 ft 180° 180° 8 kt METAR FACT 192214Z 18008KT 0100 R19/1100 FG OVC001 14/14 Q1016
00:07
L
14 °C 100 m 100 ft 170° 170° 8 kt METAR FACT 192207Z 17008KT 0100 R19/1000 FG OVC001 14/14 Q1016
00:00
L
14 °C 100 m 100 ft 170° 170° 8 kt METAR FACT 192200Z 17008KT 0100 R19/0800 FG OVC001 14/14 Q1016 NOSIG

April 19, 2024

Time Code Weather Temp. Visibility Ceiling Wind METAR/SPECI
23:22
L
14 °C 100 m 100 ft 180° 180° 9 kt METAR FACT 192122Z 18009KT 0100 R19/0900 FG OVC001 14/14 Q1016
23:13
L
14 °C 100 m 100 ft 180° 180° 8 kt METAR FACT 192113Z 18008KT 0100 R19/0900 FG OVC001 14/14 Q1016
23:07
L
14 °C 100 m 100 ft 180° 180° 8 kt METAR FACT 192107Z 18008KT 0100 R19/1100 FG OVC001 14/13 Q1016
23:04
L
14 °C 100 m 100 ft 180° 180° 8 kt METAR FACT 192104Z 18008KT 0100 R19/1100 FG OVC001 14/13 Q1016
23:00
L
13 °C 100 m 100 ft 190° 190° 8 kt METAR FACT 192100Z 19008KT 0100 R19/0800 FG OVC001 13/13 Q1016 NOSIG
22:56
L
13 °C 100 m 100 ft 190° 190° 8 kt METAR FACT 192056Z 19008KT 0100 R19/0800 FG OVC001 13/13 Q1016 NOSIG
22:21
L
13 °C 100 m 100 ft 200° 200° 8 kt METAR FACT 192021Z 20008KT 0100 R19/0500 FG OVC001 13/13 Q1016
22:14
L
13 °C 100 m 100 ft 200° 200° 7 kt METAR FACT 192014Z 20007KT 0100 R19/0550 FG OVC001 13/13 Q1016
22:03
L
13 °C 100 m 100 ft 190° 190° 5 kt METAR FACT 192003Z 19005KT 0100 R19/0450 FG OVC001 13/13 Q1015
22:00
L
13 °C 100 m 100 ft 180° 180° 5 kt METAR FACT 192000Z 18005KT 0100 R19/0550 FG OVC001 13/13 Q1015 NOSIG
21:57
L
13 °C 100 m 100 ft 180° 180° 5 kt METAR FACT 191957Z 18005KT 0100 R19/0550 FG OVC001 13/13 Q1015 NOSIG
21:20
L
13 °C 200 m 100 ft 180° 180° 7 kt METAR FACT 191920Z 18007KT 0200 R19/0650 FG OVC001 13/13 Q1015
21:17
L
13 °C 200 m 100 ft 180° 180° 8 kt METAR FACT 191917Z 18008KT 0200 R19/0450 FG OVC001 13/13 Q1015
21:06
L
13 °C 200 m 100 ft 180° 180° 8 kt METAR FACT 191906Z 18008KT 0200 R19/0750 FG OVC001 13/13 Q1015
21:00
L
13 °C 200 m 100 ft 180° 180° 8 kt METAR FACT 191900Z 18008KT 0200 R19/0600 FG OVC001 13/13 Q1015 NOSIG
20:52
L
13 °C 200 m 200 ft 180° 180° 8 kt METAR FACT 191852Z 18008KT 0200 R19/0600 FG OVC002 13/13 Q1015
20:42
L
14 °C 200 m 200 ft 180° 180° 8 kt METAR FACT 191842Z 18008KT 0200 R19/0900 FG OVC002 14/13 Q1015
20:36
L
13 °C 200 m 200 ft 180° 180° 8 kt METAR FACT 191836Z 18008KT 0200 R19/0800 FG OVC002 13/13 Q1015
20:30
L
13 °C 200 m 200 ft 180° 180° 7 kt METAR FACT 191830Z 18007KT 0200 R19/0500 FG OVC002 13/13 Q1015
20:27
L
13 °C 200 m 200 ft 190° 190° 7 kt METAR FACT 191827Z 19007KT 0200 R19/0900 FG OVC002 13/13 Q1015
20:22
L
13 °C 200 m 400 ft 200° 200° 8 kt METAR FACT 191822Z 20008KT 0200 R19/0800 FG BKN004 13/13 Q1015
20:19
L
13 °C 200 m 400 ft 200° 200° 8 kt METAR FACT 191819Z 20008KT 0200 R19/0700 FG BKN004 13/13 Q1015
20:12
L
14 °C 200 m 400 ft 200° 200° 8 kt METAR FACT 191812Z 20008KT 0200 R19/0800 FG BKN004 14/13 Q1015
20:06
L
14 °C 200 m 400 ft 200° 200° 8 kt METAR FACT 191806Z 20008KT 0200 R19/0700 FG BKN004 14/13 Q1015
20:03
L
14 °C 200 m 400 ft 210° 210° 8 kt METAR FACT 191803Z 21008KT 0200 R19/1100 FG BKN004 14/13 Q1015
19:57
L
14 °C 200 m 400 ft 210° 210° 7 kt METAR FACT 191757Z 21007KT 0200 R19/P1500 FG BKN004 14/13 Q1015
19:51
L
14 °C 200 m 400 ft 200° 200° 6 kt METAR FACT 191751Z 20006KT 0200 R19/P1500 FG BKN004 14/13 Q1014 BECMG BKN002
19:42
I
14 °C 4.5 km - 200° 200° 7 kt METAR FACT 191742Z 20007KT 4500 BR FEW008 14/13 Q1014
19:36
I
14 °C 4.5 km - 210° 210° 6 kt METAR FACT 191736Z 21006KT 4500 BR FEW008 14/13 Q1014
19:30
I
14 °C 4.5 km - 200° 200° 7 kt METAR FACT 191730Z 20007KT 4500 BR FEW008 14/13 Q1014 TEMPO 0400 FG BKN004
19:19
V
14 °C 10 km+ - 180° 180° 5 kt METAR FACT 191719Z 18005KT CAVOK 14/12 Q1014
19:16
V
14 °C 10 km+ - 170° 170° 5 kt METAR FACT 191716Z 17005KT CAVOK 14/12 Q1014
19:13
V
14 °C 10 km+ - 160° 160° 5 kt METAR FACT 191713Z 16005KT CAVOK 14/12 Q1014
19:07
V
14 °C 10 km+ - 150° 150° 4 kt METAR FACT 191707Z 15004KT CAVOK 14/13 Q1014
19:00
V
14 °C 10 km+ - 140° 140° 4 kt METAR FACT 191700Z 14004KT CAVOK 14/13 Q1014 NOSIG
18:51
V
14 °C 10 km+ - 140° 140° 4 kt METAR FACT 191651Z 14004KT CAVOK 14/12 Q1014
18:42
V
15 °C 10 km+ - 160° 160° 5 kt METAR FACT 191642Z 16005KT CAVOK 15/12 Q1014
18:39
V
15 °C 10 km+ - 160° 160° 4 kt METAR FACT 191639Z 16004KT CAVOK 15/13 Q1014
18:36
V
16 °C 10 km+ - 170° 170° 4 kt METAR FACT 191636Z 17004KT CAVOK 16/13 Q1014
18:33
V
16 °C 10 km+ - 180° 180° 5 kt METAR FACT 191633Z 18005KT CAVOK 16/13 Q1014
18:19
V
17 °C 10 km+ - 180° 180° 6 kt METAR FACT 191619Z 18006KT CAVOK 17/13 Q1014
18:00
V
19 °C 10 km+ - 200° 200° 8 kt METAR FACT 191600Z 20008KT CAVOK 19/13 Q1014 NOSIG
17:00
V
21 °C 10 km+ - 190° 190° 6 kt METAR FACT 191500Z 19006KT CAVOK 21/14 Q1014 NOSIG
16:00
V
22 °C 10 km+ - 180° 180° 6 kt METAR FACT 191400Z 18006KT 140V210 CAVOK 22/14 Q1014 NOSIG
15:00
V
21 °C 10 km+ - 200° 200° 9 kt METAR FACT 191300Z 20009KT CAVOK 21/14 Q1014 NOSIG
14:00
V
23 °C 10 km+ - 190° 190° 7 kt METAR FACT 191200Z 19007KT CAVOK 23/14 Q1014 NOSIG
13:00
V
23 °C 10 km+ - 200° 200° 4 kt METAR FACT 191100Z 20004KT 160V250 CAVOK 23/14 Q1015 NOSIG
12:00
V
21 °C 10 km+ - 210° 210° 5 kt METAR FACT 191000Z 21005KT 170V270 CAVOK 21/15 Q1015 NOSIG
11:20
V
20 °C 10 km+ - 210° 210° 4 kt METAR FACT 190920Z 21004KT 170V250 CAVOK 20/14 Q1016 NOSIG
11:08
V
18 °C 8 km - Var Var 3 kt METAR FACT 190908Z VRB03KT 8000 NSC 18/16 Q1016
11:00
V
16 °C 8 km - Var Var 3 kt METAR FACT 190900Z VRB03KT 8000 NSC 16/16 Q1016 NOSIG
10:52
M
16 °C 6 km - Var Var 3 kt METAR FACT 190852Z VRB03KT 6000 SCT002 16/16 Q1016
10:26
M
15 °C 6 km - Var Var 2 kt METAR FACT 190826Z VRB02KT 6000 SCT002 15/15 Q1016 NOSIG
10:21
L
15 °C 1 km - Var Var 2 kt METAR FACT 190821Z VRB02KT 1000 BR SCT002 15/15 Q1016
10:11
L
15 °C 1 km - Var Var 2 kt METAR FACT 190811Z VRB02KT 1000 BR SCT002 15/14 Q1016
10:08
L
14 °C 1 km - Var Var 3 kt METAR FACT 190808Z VRB03KT 1000 BR SCT002 14/14 Q1016
10:02
L
14 °C 1 km - 230° 230° 4 kt METAR FACT 190802Z 23004KT 180V260 1000 BR SCT002 14/14 Q1017
09:59
L
14 °C 1 km - 230° 230° 4 kt METAR FACT 190759Z 23004KT 200V260 1000 BR SCT002 14/14 Q1017
09:53
L
14 °C 1 km - 220° 220° 5 kt METAR FACT 190753Z 22005KT 1000 R01/1000 BR SCT002 14/14 Q1017 BECMG 6000 SCT002
09:39
L
14 °C 800 m 100 ft 220° 220° 5 kt METAR FACT 190739Z 22005KT 170V270 0800 R01/0900 FG OVC001 14/14 Q1017
09:36
L
14 °C 800 m 100 ft 230° 230° 5 kt METAR FACT 190736Z 23005KT 170V270 0800 R01/0550 FG OVC001 14/14 Q1017
09:28
L
14 °C 800 m 100 ft 230° 230° 5 kt METAR FACT 190728Z 23005KT 200V260 0800 R01/1100 FG OVC001 14/14 Q1017
09:13
L
13 °C 100 m 100 ft 230° 230° 4 kt METAR FACT 190713Z 23004KT 200V260 0100 R01/0325 FG OVC001 13/13 Q1017
09:00
L
13 °C 100 m 100 ft Var Var 2 kt METAR FACT 190700Z VRB02KT 0100 R01/0200 FG OVC001 13/13 Q1016 NOSIG
08:48
L
13 °C 100 m 100 ft Var Var 1 kt METAR FACT 190648Z VRB01KT 0100 R01/0225 FG OVC001 13/13 Q1016
08:38
L
13 °C 100 m 100 ft Var Var 2 kt METAR FACT 190638Z VRB02KT 0100 R01/0200 FG OVC001 13/13 Q1016
08:29
L
13 °C 100 m 100 ft Var Var 3 kt METAR FACT 190629Z VRB03KT 0100 R01/0200 FG OVC001 13/13 Q1016
08:21
L
13 °C 100 m 100 ft 200° 200° 4 kt METAR FACT 190621Z 20004KT 170V230 0100 R01/0225 FG OVC001 13/13 Q1016
08:13
L
13 °C 100 m 100 ft 190° 190° 4 kt METAR FACT 190613Z 19004KT 0100 R01/0250 FG OVC001 13/13 Q1016
08:09
L
13 °C 100 m 100 ft 190° 190° 4 kt METAR FACT 190609Z 19004KT 170V230 0100 R01/0250 FG OVC001 13/13 Q1016
08:00
L
13 °C 100 m 100 ft 200° 200° 4 kt METAR FACT 190600Z 20004KT 160V230 0100 R01/0225 FG OVC001 13/12 Q1016 NOSIG
07:58
L
13 °C 100 m 100 ft 190° 190° 4 kt METAR FACT 190558Z 19004KT 160V230 0100 R01/0225 FG OVC001 13/12 Q1016
07:49
L
12 °C 100 m 100 ft 200° 200° 4 kt METAR FACT 190549Z 20004KT 170V230 0100 R01/0225 FG OVC001 12/12 Q1016
07:43
L
12 °C 100 m 100 ft 200° 200° 4 kt METAR FACT 190543Z 20004KT 160V220 0100 R01/0225 FG OVC001 12/12 Q1016
07:34
L
12 °C 100 m 100 ft Var Var 3 kt METAR FACT 190534Z VRB03KT 0100 R01/0200 FG OVC001 12/12 Q1016
07:30
L
12 °C 100 m 100 ft Var Var 3 kt METAR FACT 190530Z VRB03KT 0100 R01/0200 FG OVC001 12/12 Q1016
07:27
L
12 °C 100 m 100 ft 180° 180° 3 kt METAR FACT 190527Z 18003KT 0100 R01/0200 FG OVC001 12/12 Q1016 NOSIG
07:18
L
12 °C 100 m - 180° 180° 4 kt METAR FACT 190518Z 18004KT 0100 R01/0225 FG NSC 12/12 Q1016
07:15
L
12 °C 100 m - 180° 180° 4 kt METAR FACT 190515Z 18004KT 0100 R01/0250 FG NSC 12/12 Q1016
07:12
L
12 °C 100 m - 180° 180° 4 kt METAR FACT 190512Z 18004KT 0100 R01/0225 FG NSC 12/12 Q1016
07:00
L
12 °C 100 m - 200° 200° 4 kt METAR FACT 190500Z 20004KT 170V230 0100 R01/0300 FG NSC 12/12 Q1016 NOSIG
06:50
L
12 °C 100 m - 200° 200° 4 kt METAR FACT 190450Z 20004KT 140V220 0100 R01/0200 FG NSC 12/12 Q1016
06:44
L
12 °C 100 m - Var Var 3 kt METAR FACT 190444Z VRB03KT 0100 R01/0175 FG NSC 12/12 Q1016
06:41
L
12 °C 100 m - Var Var 3 kt METAR FACT 190441Z VRB03KT 0100 R01/0275 FG NSC 12/12 Q1016
06:35
L
12 °C 100 m - Var Var 2 kt METAR FACT 190435Z VRB02KT 0100 R01/0225 FG NSC 12/12 Q1016
06:32
L
12 °C 100 m - Var Var 2 kt METAR FACT 190432Z VRB02KT 0100 R01/0225 FG NSC 12/12 Q1016
06:20
L
12 °C 100 m - Var Var 3 kt METAR FACT 190420Z VRB03KT 0100 R01/0375 FG NSC 12/12 Q1016
06:17
L
12 °C 100 m - Var Var 3 kt METAR FACT 190417Z VRB03KT 0100 R01/0375 FG NSC 12/12 Q1016
06:11
L
11 °C 100 m - Var Var 2 kt METAR FACT 190411Z VRB02KT 0100 R01/0400 FG NSC 11/11 Q1016
06:08
L
11 °C 100 m - Var Var 2 kt METAR FACT 190408Z VRB02KT 0100 R01/0225 FG NSC 11/11 Q1016
06:00
L
12 °C 100 m - Var Var 2 kt METAR FACT 190400Z VRB02KT 0100 R01/0200 FG NSC 12/11 Q1016 NOSIG
05:50
L
12 °C 100 m - 080° 080° 2 kt METAR FACT 190350Z 08002KT 0100 R01/0200 FG NSC 12/12 Q1016
05:41
L
12 °C 100 m - 080° 080° 2 kt METAR FACT 190341Z 08002KT 0100 R01/0200 FG NSC 12/12 Q1016
05:38
L
12 °C 100 m - 090° 090° 2 kt METAR FACT 190338Z 09002KT 0100 R01/0200 FG NSC 12/12 Q1016
05:29
L
12 °C 100 m - 100° 100° 2 kt METAR FACT 190329Z 10002KT 0100 R01/0175 FG NSC 12/12 Q1016
05:26
L
12 °C 100 m - Var Var 2 kt METAR FACT 190326Z VRB02KT 0100 R01/0175 FG NSC 12/12 Q1016
05:19
L
12 °C 100 m - Var Var 2 kt METAR FACT 190319Z VRB02KT 0100 R01/0225 FG NSC 12/12 Q1016
05:16
L
12 °C 100 m - Var Var 2 kt METAR FACT 190316Z VRB02KT 0100 R01/0275 FG NSC 12/12 Q1016
05:10
L
12 °C 100 m - 120° 120° 2 kt METAR FACT 190310Z 12002KT 0100 R01/0400 FG NSC 12/12 Q1016
05:00
L
12 °C 100 m - 110° 110° 2 kt METAR FACT 190300Z 11002KT 0100 R01/0400 FG NSC 12/12 Q1016 NOSIG
04:39
L
12 °C 100 m 100 ft Var Var 1 kt METAR FACT 190239Z VRB01KT 0100 R01/0225 FG OVC001 12/12 Q1016
04:18
L
12 °C 100 m - 060° 060° 2 kt METAR FACT 190218Z 06002KT 0100 R01/0275 FG NSC 12/12 Q1016
04:15
L
12 °C 100 m - 060° 060° 2 kt METAR FACT 190215Z 06002KT 0100 R01/0275 FG NSC 12/12 Q1016
04:12
L
12 °C 100 m - Var Var 2 kt METAR FACT 190212Z VRB02KT 0100 R01/0300 FG NSC 12/12 Q1016
04:09
L
12 °C 100 m - Var Var 2 kt METAR FACT 190209Z VRB02KT 0100 R01/0275 FG NSC 12/12 Q1016
04:00
L
13 °C 100 m - Var Var 2 kt METAR FACT 190200Z VRB02KT 0100 R01/0225 FG NSC 13/12 Q1016 NOSIG
03:57
L
13 °C 100 m - 100° 100° 2 kt METAR FACT 190157Z 10002KT 0100 R01/0225 FG NSC 13/12 Q1016
03:19
L
13 °C 100 m - Var Var 1 kt METAR FACT 190119Z VRB01KT 0100 R01/0450 FG NSC 13/13 Q1016
03:16
L
13 °C 100 m - Var Var 1 kt METAR FACT 190116Z VRB01KT 0100 R01/0500 FG NSC 13/13 Q1016
03:10
L
13 °C 100 m - Var Var 1 kt METAR FACT 190110Z VRB01KT 0100 R19/0175 FG NSC 13/13 Q1016
03:04
L
13 °C 100 m - Var Var 2 kt METAR FACT 190104Z VRB02KT 0100 R19/0275 FG NSC 13/13 Q1016
03:00
L
13 °C 100 m - Var Var 2 kt METAR FACT 190100Z VRB02KT 0100 R19/0250 FG NSC 13/13 Q1016 NOSIG
02:21
L
13 °C 100 m - Var Var 3 kt METAR FACT 190021Z VRB03KT 0100 R19/0375 FG NSC 13/13 Q1016
02:18
L
13 °C 100 m - Var Var 3 kt METAR FACT 190018Z VRB03KT 0100 R19/0375 FG NSC 13/13 Q1016
02:15
L
13 °C 100 m - Var Var 2 kt METAR FACT 190015Z VRB02KT 0100 R19/0325 FG NSC 13/13 Q1017
02:09
L
13 °C 100 m - Var Var 2 kt METAR FACT 190009Z VRB02KT 0100 R19/0325 FG NSC 13/13 Q1017
02:06
L
13 °C 100 m - Var Var 2 kt METAR FACT 190006Z VRB02KT 0100 R19/0325 FG NSC 13/13 Q1017
02:03
L
13 °C 100 m - Var Var 3 kt METAR FACT 190003Z VRB03KT 0100 R19/0300 FG NSC 13/13 Q1017
02:00
L
13 °C 100 m - 190° 190° 4 kt METAR FACT 190000Z 19004KT 0100 R19/0275 FG NSC 13/13 Q1017 NOSIG
01:51
L
14 °C 100 m - 190° 190° 4 kt METAR FACT 182351Z 19004KT 0100 R19/0400 FG NSC 14/13 Q1017
01:42
L
14 °C 100 m - 200° 200° 4 kt METAR FACT 182342Z 20004KT 0100 R19/0600 FG NSC 14/13 Q1017
01:36
L
14 °C 100 m - 190° 190° 4 kt METAR FACT 182336Z 19004KT 0100 R19/0375 FG NSC 14/13 Q1017
01:32
L
14 °C 100 m - 200° 200° 4 kt METAR FACT 182332Z 20004KT 0100 R19/0800 FG NSC 14/13 Q1017 NOSIG
01:20
I
14 °C 1.5 km - 200° 200° 5 kt METAR FACT 182320Z 20005KT 1500 R19/0600 BR NSC 14/13 Q1017
01:14
I
14 °C 1.5 km - 200° 200° 6 kt METAR FACT 182314Z 20006KT 1500 R19/0600 BR NSC 14/13 Q1017
01:11
I
14 °C 1.5 km - 190° 190° 6 kt METAR FACT 182311Z 19006KT 160V220 1500 R19/0700 BR NSC 14/13 Q1017
01:08
I
14 °C 1.5 km - 190° 190° 5 kt METAR FACT 182308Z 19005KT 160V220 1500 R19/P1500 BR NSC 14/13 Q1017
01:02
I
14 °C 1.5 km - 200° 200° 5 kt METAR FACT 182302Z 20005KT 160V220 1500 R19/P1500 BR NSC 14/13 Q1017
01:00
I
14 °C 1.5 km - 210° 210° 7 kt METAR FACT 182300Z 21007KT 1500 BR NSC 14/13 Q1017 TEMPO 3000
00:56
I
14 °C 1.5 km - 210° 210° 6 kt METAR FACT 182256Z 21006KT 1500 R19/P1500 BR NSC 14/13 Q1017
00:22
L
13 °C 200 m - 190° 190° 6 kt METAR FACT 182222Z 19006KT 0200 FG NSC 13/13 Q1017
00:19
L
13 °C 200 m - 200° 200° 6 kt METAR FACT 182219Z 20006KT 0200 R19/1000 FG NSC 13/13 Q1017
00:10
L
13 °C 200 m - 200° 200° 6 kt METAR FACT 182210Z 20006KT 0200 R19/P1500 FG NSC 13/13 Q1017
00:04
L
13 °C 200 m - 200° 200° 7 kt METAR FACT 182204Z 20007KT 0200 R19/0600 FG NSC 13/13 Q1017
00:00
L
13 °C 200 m - 200° 200° 7 kt METAR FACT 182200Z 20007KT 0200 R19/1100 FG NSC 13/13 Q1018 NOSIG

April 18, 2024

Time Code Weather Temp. Visibility Ceiling Wind METAR/SPECI
23:21
L
13 °C 200 m - 210° 210° 8 kt METAR FACT 182121Z 21008KT 0200 R19/0600 FG NSC 13/13 Q1018
23:15
L
13 °C 200 m - 200° 200° 8 kt METAR FACT 182115Z 20008KT 0200 R19/0700 FG NSC 13/13 Q1018
23:12
L
13 °C 200 m - 200° 200° 8 kt METAR FACT 182112Z 20008KT 0200 R19/0750 FG NSC 13/13 Q1018
23:03
L
14 °C 200 m - 210° 210° 6 kt METAR FACT 182103Z 21006KT 0200 R19/P1500 FG NSC 14/13 Q1018
23:00
L
14 °C 200 m - 220° 220° 9 kt METAR FACT 182100Z 22009KT 0200 R19/0900 FG NSC 14/13 Q1018 NOSIG
22:54
L
14 °C 200 m - 220° 220° 9 kt METAR FACT 182054Z 22009KT 0200 R19/0900 FG NSC 14/13 Q1018 NOSIG
22:20
L
14 °C 500 m - 210° 210° 8 kt METAR FACT 182020Z 21008KT 0500 R19/1400 FG NSC 14/14 Q1018
22:14
L
14 °C 500 m - 210° 210° 8 kt METAR FACT 182014Z 21008KT 0500 R19/P1500 FG NSC 14/14 Q1018
22:11
L
14 °C 500 m - 210° 210° 9 kt METAR FACT 182011Z 21009KT 0500 R19/P1500 FG NSC 14/14 Q1018
22:05
L
14 °C 500 m - 210° 210° 10 kt METAR FACT 182005Z 21010KT 0500 R19/1400 FG NSC 14/14 Q1018
22:00
L
14 °C 500 m - 210° 210° 10 kt METAR FACT 182000Z 21010KT 0500 R19/1400 FG NSC 14/14 Q1018 NOSIG
21:21
L
14 °C 550 m 100 ft 210° 210° 12 kt METAR FACT 181921Z 21012KT 0550 R19/1200 FG OVC001 14/14 Q1018
21:18
L
14 °C 550 m 100 ft 210° 210° 12 kt METAR FACT 181918Z 21012KT 0550 R19/1300 FG OVC001 14/14 Q1018
21:03
L
14 °C 550 m 100 ft 210° 210° 12 kt METAR FACT 181903Z 21012KT 0550 R19/P1500 FG OVC001 14/14 Q1018
21:00
L
14 °C 550 m 100 ft 210° 210° 12 kt METAR FACT 181900Z 21012KT 0550 R19/P1500 FG OVC001 14/14 Q1018 NOSIG
20:51
L
14 °C 650 m - 220° 220° 12 kt METAR FACT 181851Z 22012KT 0650 R19/P1500 FG NSC 14/14 Q1018
20:42
L
14 °C 650 m - 220° 220° 12 kt METAR FACT 181842Z 22012KT 0650 R19/1100 FG NSC 14/14 Q1018
20:36
L
14 °C 650 m - 210° 210° 12 kt METAR FACT 181836Z 21012KT 0650 R19/1200 FG NSC 14/14 Q1018
20:27
L
14 °C 650 m - 220° 220° 12 kt METAR FACT 181827Z 22012KT 0650 R19/P1500 FG NSC 14/14 Q1018
20:24
L
14 °C 650 m - 210° 210° 11 kt METAR FACT 181824Z 21011KT 0650 R19/P1500 FG NSC 14/14 Q1018 NOSIG
20:22
L
14 °C 800 m - 210° 210° 11 kt METAR FACT 181822Z 21011KT 0800 R19/P1500 FG VV/// 14/14 Q1018
20:16
L
14 °C 800 m - 210° 210° 11 kt METAR FACT 181816Z 21011KT 0800 R19/P1500 FG VV/// 14/14 Q1018
20:13
L
14 °C 800 m - 210° 210° 11 kt METAR FACT 181813Z 21011KT 0800 R19/P1500 FG VV/// 14/14 Q1018
20:07
L
14 °C 800 m - 210° 210° 11 kt METAR FACT 181807Z 21011KT 0800 R19/P1500 FG VV/// 14/14 Q1018
20:04
L
14 °C 800 m - 200° 200° 11 kt METAR FACT 181804Z 20011KT 0800 R19/P1500 FG VV/// 14/14 Q1018
20:00
L
14 °C 800 m - 210° 210° 9 kt METAR FACT 181800Z 21009KT 0800 R19/P1500 FG VV/// 14/13 Q1018 NOSIG
19:54
L
14 °C 3 km 300 ft 210° 210° 9 kt METAR FACT 181754Z 21009KT 3000 R19/P1500 BR OVC003 14/13 Q1018
19:42
I
14 °C 7 km 500 ft 200° 200° 11 kt METAR FACT 181742Z 20011KT 7000 BKN005 14/13 Q1018
19:39
I
15 °C 7 km 500 ft 200° 200° 11 kt METAR FACT 181739Z 20011KT 7000 BKN005 15/13 Q1018
19:30
I
15 °C 7 km 500 ft 200° 200° 11 kt METAR FACT 181730Z 20011KT 7000 BKN005 15/13 Q1018
19:17
I
15 °C 8 km 500 ft 200° 200° 9 kt METAR FACT 181717Z 20009KT 8000 BKN005 15/13 Q1018
19:07
I
15 °C 8 km 500 ft 210° 210° 10 kt METAR FACT 181707Z 21010KT 8000 BKN005 15/13 Q1018
19:00
I
15 °C 8 km 500 ft 200° 200° 11 kt METAR FACT 181700Z 20011KT 8000 BKN005 15/13 Q1018 BECMG 4000 BR
18:33
V
15 °C 10 km+ - 200° 200° 11 kt METAR FACT 181633Z 20011KT 9999 FEW008 15/14 Q1018
18:06
V
16 °C 10 km+ - 180° 180° 10 kt METAR FACT 181606Z 18010KT CAVOK 16/14 Q1018
18:00
V
17 °C 10 km+ - 170° 170° 10 kt METAR FACT 181600Z 17010KT CAVOK 17/14 Q1018 NOSIG
17:51
V
17 °C 10 km+ - 170° 170° 10 kt METAR FACT 181551Z 17010KT 9999 FEW008 17/14 Q1018
17:29
V
17 °C 10 km+ - 160° 160° 11 kt METAR FACT 181529Z 16011KT 9999 FEW008 17/14 Q1018
17:05
V
18 °C 10 km+ - 170° 170° 12 kt METAR FACT 181505Z 17012KT CAVOK 18/15 Q1019
17:00
V
18 °C 10 km+ - 170° 170° 12 kt METAR FACT 181500Z 17012KT CAVOK 18/15 Q1018 NOSIG
16:00
V
20 °C 10 km+ - 170° 170° 12 kt METAR FACT 181400Z 17012KT CAVOK 20/14 Q1018 NOSIG
15:58
V
20 °C 10 km+ - 170° 170° 12 kt METAR FACT 181358Z 17012KT CAVOK 20/14 Q1018
15:47
V
20 °C 10 km+ - 170° 170° 12 kt METAR FACT 181347Z 17012KT CAVOK 20/14 Q1018
15:26
V
21 °C 10 km+ - 180° 180° 11 kt METAR FACT 181326Z 18011KT CAVOK 21/14 Q1018
15:20
V
21 °C 10 km+ - 180° 180° 11 kt METAR FACT 181320Z 18011KT CAVOK 21/14 Q1018
15:13
V
21 °C 10 km+ - 180° 180° 11 kt METAR FACT 181313Z 18011KT CAVOK 21/14 Q1018
15:05
V
21 °C 10 km+ - 180° 180° 10 kt METAR FACT 181305Z 18010KT CAVOK 21/14 Q1018
15:00
V
21 °C 10 km+ - 180° 180° 10 kt METAR FACT 181300Z 18010KT 150V210 CAVOK 21/14 Q1018 NOSIG
14:52
V
21 °C 10 km+ - 180° 180° 10 kt METAR FACT 181252Z 18010KT 150V210 CAVOK 21/14 Q1018
14:40
V
21 °C 10 km+ - 180° 180° 9 kt METAR FACT 181240Z 18009KT 140V210 CAVOK 21/14 Q1018
14:21
V
21 °C 10 km+ - 180° 180° 9 kt METAR FACT 181221Z 18009KT 140V200 CAVOK 21/14 Q1018
13:59
V
21 °C 10 km+ - 180° 180° 8 kt METAR FACT 181159Z 18008KT 150V210 CAVOK 21/14 Q1018
14:00
V
21 °C 10 km+ - 180° 180° 9 kt METAR FACT 181200Z 18009KT 150V210 CAVOK 21/14 Q1019 NOSIG
13:53
V
21 °C 10 km+ - 180° 180° 9 kt METAR FACT 181153Z 18009KT 150V210 CAVOK 21/14 Q1019
13:44
V
21 °C 10 km+ - 180° 180° 9 kt METAR FACT 181144Z 18009KT 140V210 CAVOK 21/14 Q1019
13:40
V
21 °C 10 km+ - 180° 180° 9 kt METAR FACT 181140Z 18009KT 140V210 CAVOK 21/14 Q1019
13:34
V
21 °C 10 km+ - 180° 180° 9 kt METAR FACT 181134Z 18009KT 150V210 CAVOK 21/14 Q1019
13:00
V
20 °C 10 km+ - 170° 170° 10 kt METAR FACT 181100Z 17010KT CAVOK 20/14 Q1019 NOSIG
12:42
V
20 °C 10 km+ - 180° 180° 10 kt METAR FACT 181042Z 18010KT CAVOK 20/14 Q1019
12:38
V
20 °C 10 km+ - 180° 180° 10 kt METAR FACT 181038Z 18010KT 140V200 CAVOK 20/14 Q1019
12:35
V
20 °C 10 km+ - 170° 170° 10 kt METAR FACT 181035Z 17010KT 140V200 CAVOK 20/14 Q1019
12:00
V
20 °C 10 km+ - 190° 190° 9 kt METAR FACT 181000Z 19009KT 140V220 CAVOK 20/14 Q1020 NOSIG
11:29
V
19 °C 10 km+ - 200° 200° 8 kt METAR FACT 180929Z 20008KT 9999 FEW006 19/15 Q1020 NOSIG
11:13
V
18 °C 8 km - 190° 190° 7 kt METAR FACT 180913Z 19007KT 140V230 8000 SCT006 18/15 Q1020
11:00
V
17 °C 8 km - 180° 180° 5 kt METAR FACT 180900Z 18005KT 150V230 8000 SCT006 17/16 Q1020 NOSIG
10:53
V
17 °C 8 km - 180° 180° 5 kt METAR FACT 180853Z 18005KT 150V230 8000 SCT006 17/16 Q1020 NOSIG
10:35
I
16 °C 4 km - 170° 170° 4 kt METAR FACT 180835Z 17004KT 130V200 4000 BCFG SCT006 16/16 Q1020
10:10
L
15 °C 1.5 km 200 ft 180° 180° 4 kt METAR FACT 180810Z 18004KT 130V240 1500 BR BKN002 15/15 Q1020 BECMG 3000
10:00
L
15 °C 200 m 200 ft Var Var 3 kt METAR FACT 180800Z VRB03KT 0200 R01/0800 FG BKN002 15/15 Q1020 BECMG 1200 BR
09:56
L
15 °C 200 m 200 ft Var Var 3 kt METAR FACT 180756Z VRB03KT 0200 R01/0800 FG BKN002 15/15 Q1020 BECMG 1200 BR
09:51
L
15 °C 500 m - Var Var 3 kt METAR FACT 180751Z VRB03KT 0500 R01/0400 FG NSC 15/15 Q1020
09:42
L
15 °C 500 m - 150° 150° 4 kt METAR FACT 180742Z 15004KT 130V190 0500 R01/0400 FG NSC 15/15 Q1020
09:36
L
15 °C 500 m - Var Var 3 kt METAR FACT 180736Z VRB03KT 0500 R01/0200 FG NSC 15/15 Q1020
09:30
L
15 °C 500 m - 150° 150° 3 kt METAR FACT 180730Z 15003KT 0500 R01/0175 FG NSC 15/15 Q1020
09:27
L
15 °C 500 m - Var Var 3 kt METAR FACT 180727Z VRB03KT 0500 R01/0250 FG NSC 15/15 Q1020 BECMG 1200 BR
09:22
L
15 °C 100 m - Var Var 3 kt METAR FACT 180722Z VRB03KT 0100 R01/0500 FG NSC 15/15 Q1020
09:16
L
15 °C 100 m - 160° 160° 4 kt METAR FACT 180716Z 16004KT 130V200 0100 R01/0450 FG NSC 15/15 Q1020
09:13
L
15 °C 100 m - 160° 160° 4 kt METAR FACT 180713Z 16004KT 130V190 0100 R01/0550 FG NSC 15/15 Q1020
09:10
L
15 °C 100 m - 160° 160° 4 kt METAR FACT 180710Z 16004KT 130V190 0100 R01/0300 FG NSC 15/15 Q1020
09:03
L
15 °C 100 m - 180° 180° 4 kt METAR FACT 180703Z 18004KT 150V220 0100 R01/0350 FG NSC 15/15 Q1020
09:00
L
15 °C 100 m - 190° 190° 4 kt METAR FACT 180700Z 19004KT 160V220 0100 R01/0350 FG NSC 15/14 Q1020
08:57
L
15 °C 100 m - 190° 190° 4 kt METAR FACT 180657Z 19004KT 0100 R01/0375 FG NSC 15/15 Q1020
08:42
L
15 °C 100 m - 170° 170° 4 kt METAR FACT 180642Z 17004KT 0100 R01/0275 FG NSC 15/14 Q1020
08:36
L
15 °C 100 m - 160° 160° 4 kt METAR FACT 180636Z 16004KT 130V190 0100 R01/0325 FG NSC 15/14 Q1020
08:33
L
15 °C 100 m - 160° 160° 4 kt METAR FACT 180633Z 16004KT 130V190 0100 R01/0275 FG NSC 15/14 Q1020
08:27
L
15 °C 100 m - 160° 160° 4 kt METAR FACT 180627Z 16004KT 130V190 0100 R01/0250 FG NSC 15/14 Q1020
08:19
L
15 °C 100 m - 170° 170° 4 kt METAR FACT 180619Z 17004KT 0100 R01/0250 FG NSC 15/14 Q1020
08:13
L
15 °C 100 m - 170° 170° 5 kt METAR FACT 180613Z 17005KT 0100 R01/0250 FG NSC 15/14 Q1019
08:10
L
15 °C 100 m - 180° 180° 5 kt METAR FACT 180610Z 18005KT 0100 R01/0250 FG NSC 15/14 Q1019
08:03
L
14 °C 100 m - 170° 170° 5 kt METAR FACT 180603Z 17005KT 0100 R01/0250 FG NSC 14/14 Q1019
08:00
L
14 °C 100 m - Var Var 3 kt METAR FACT 180600Z VRB03KT 0100 R01/0225 FG NSC 14/14 Q1019 NOSIG
07:57
L
14 °C 100 m - Var Var 3 kt METAR FACT 180557Z VRB03KT 0100 R01/0225 FG NSC 14/14 Q1019 NOSIG
07:50
L
14 °C 100 m - 140° 140° 3 kt METAR FACT 180550Z 14003KT 0100 R01/0225 FG NSC 14/14 Q1019
Report a change